Time,TemperatureF,DewpointF,PressureIn,WindDirection,WindDirectionDegrees,WindSpeedMPH,WindSpeedGustMPH,Humidity,HourlyPrecipIn,Conditions,Clouds,dailyrainin,SoftwareType,DateUTC
2013-12-17 00:22:00,28.0,25.0,-100.00,WNW,293,1.0,-999.0,87,-99.99,,,-99.99,,2013-12-17 06:22:00,
2013-12-17 00:52:00,28.0,25.0,-100.00,NNW,338,1.0,-999.0,88,-99.99,,,-99.99,,2013-12-17 06:52:00,
2013-12-17 01:21:00,27.0,24.0,-100.00,West,270,2.0,-999.0,88,-99.99,,,-99.99,,2013-12-17 07:21:00,
2013-12-17 01:52:00,28.0,24.0,-100.00,West,270,2.0,-999.0,85,-99.99,,,-99.99,,2013-12-17 07:52:00,
2013-12-17 02:21:00,28.0,24.0,-100.00,West,270,2.0,-999.0,85,-99.99,,,-99.99,,2013-12-17 08:21:00,
2013-12-17 02:52:00,27.0,23.0,-100.00,West,270,2.0,-999.0,87,-99.99,,,-99.99,,2013-12-17 08:52:00,
2013-12-17 03:22:00,26.0,23.0,-100.00,West,270,2.0,-999.0,87,-99.99,,,-99.99,,2013-12-17 09:22:00,
2013-12-17 03:53:00,27.0,23.0,-100.00,WNW,293,3.0,-999.0,88,-99.99,,,-99.99,,2013-12-17 09:53:00,
2013-12-17 04:23:00,26.0,22.0,-100.00,WNW,293,2.0,-999.0,88,-99.99,,,-99.99,,2013-12-17 10:23:00,
2013-12-17 04:53:00,25.0,22.0,-100.00,NW,315,2.0,-999.0,89,-99.99,,,-99.99,,2013-12-17 10:53:00,
2013-12-17 05:22:00,25.0,22.0,-100.00,WNW,293,2.0,-999.0,88,-99.99,,,-99.99,,2013-12-17 11:22:00,
2013-12-17 05:52:00,25.0,22.0,-100.00,WNW,293,3.0,-999.0,88,-99.99,,,-99.99,,2013-12-17 11:52:00,
2013-12-17 06:22:00,27.0,23.0,-100.00,NW,315,3.0,-999.0,85,-99.99,,,-99.99,,2013-12-17 12:22:00,
2013-12-17 06:52:00,28.0,24.0,-100.00,NW,315,3.0,-999.0,83,-99.99,,,-99.99,,2013-12-17 12:52:00,
2013-12-17 07:21:00,27.0,23.0,-100.00,NW,315,3.0,-999.0,84,-99.99,,,-99.99,,2013-12-17 13:21:00,
2013-12-17 07:52:00,28.0,23.0,-100.00,NW,315,3.0,-999.0,83,-99.99,,,-99.99,,2013-12-17 13:52:00,
2013-12-17 08:21:00,28.0,23.0,-100.00,NW,315,2.0,-999.0,84,-99.99,,,-99.99,,2013-12-17 14:21:00,
2013-12-17 08:52:00,29.0,24.0,-100.00,NW,315,3.0,-999.0,84,-99.99,,,-99.99,,2013-12-17 14:52:00,
2013-12-17 09:22:00,30.0,25.0,-100.00,NW,315,3.0,-999.0,83,-99.99,,,-99.99,,2013-12-17 15:22:00,
2013-12-17 09:53:00,32.0,26.0,-100.00,NW,315,3.0,-999.0,78,-99.99,,,-99.99,,2013-12-17 15:53:00,
2013-12-17 10:23:00,34.0,25.0,-100.00,ESE,113,4.0,-999.0,69,-99.99,,,-99.99,,2013-12-17 16:23:00,
2013-12-17 10:52:00,35.0,23.0,-100.00,NNE,23,4.0,-999.0,61,-99.99,,,-99.99,,2013-12-17 16:52:00,
2013-12-17 11:12:00,35.0,21.0,-100.00,NNE,23,5.0,-999.0,56,-99.99,,,-99.99,,2013-12-17 17:12:00,
2013-12-17 11:23:00,36.0,21.0,-100.00,NNE,23,4.0,-999.0,54,-99.99,,,-99.99,,2013-12-17 17:23:00,
2013-12-17 11:53:00,36.0,20.0,-100.00,SSW,203,4.0,-999.0,50,-99.99,,,-99.99,,2013-12-17 17:53:00,
2013-12-17 12:21:00,38.0,19.0,-100.00,East,90,3.0,-999.0,46,-99.99,,,-99.99,,2013-12-17 18:21:00,
2013-12-17 12:52:00,39.0,17.0,-100.00,NE,45,3.0,-999.0,42,-99.99,,,-99.99,,2013-12-17 18:52:00,
2013-12-17 13:22:00,39.0,17.0,-100.00,NW,315,3.0,-999.0,40,-99.99,,,-99.99,,2013-12-17 19:22:00,
2013-12-17 13:52:00,40.0,17.0,-100.00,WNW,293,2.0,-999.0,40,-99.99,,,-99.99,,2013-12-17 19:52:00,
2013-12-17 14:22:00,40.0,16.0,-100.00,West,270,3.0,-999.0,38,-99.99,,,-99.99,,2013-12-17 20:22:00,
2013-12-17 14:52:00,42.0,16.0,-100.00,SW,225,1.0,-999.0,36,-99.99,,,-99.99,,2013-12-17 20:52:00,
2013-12-17 15:22:00,41.0,16.0,-100.00,WSW,248,2.0,-999.0,36,-99.99,,,-99.99,,2013-12-17 21:22:00,
2013-12-17 15:43:00,43.0,14.0,-100.00,ESE,113,2.0,-999.0,31,-99.99,,,-99.99,,2013-12-17 21:43:00,
2013-12-17 15:53:00,42.0,-99.9,-100.00,SE,135,1.0,-999.0,30,-99.99,,,-99.99,,2013-12-17 21:53:00,
2013-12-17 16:23:00,42.0,-99.9,-100.00,WNW,293,1.0,-999.0,29,-99.99,,,-99.99,,2013-12-17 22:23:00,
2013-12-17 16:53:00,41.0,14.0,-100.00,SW,225,1.0,-999.0,33,-99.99,,,-99.99,,2013-12-17 22:53:00,
2013-12-17 17:22:00,38.0,16.0,-100.00,SSW,203,1.0,-999.0,40,-99.99,,,-99.99,,2013-12-17 23:22:00,
2013-12-17 17:53:00,37.0,16.0,-100.00,SSW,203,1.0,-999.0,42,-99.99,,,-99.99,,2013-12-17 23:53:00,
2013-12-17 18:22:00,36.0,16.0,-100.00,South,180,1.0,-999.0,45,-99.99,,,-99.99,,2013-12-18 00:22:00,
2013-12-17 18:52:00,34.0,16.0,-100.00,South,180,2.0,-999.0,47,-99.99,,,-99.99,,2013-12-18 00:52:00,
2013-12-17 19:22:00,32.0,16.0,-100.00,South,180,2.0,-999.0,52,-99.99,,,-99.99,,2013-12-18 01:22:00,
2013-12-17 19:52:00,32.0,17.0,-100.00,South,180,2.0,-999.0,54,-99.99,,,-99.99,,2013-12-18 01:52:00,
2013-12-17 20:21:00,32.0,18.0,-100.00,SSW,203,3.0,-999.0,56,-99.99,,,-99.99,,2013-12-18 02:21:00,
2013-12-17 20:52:00,31.0,19.0,-100.00,SSW,203,3.0,-999.0,61,-99.99,,,-99.99,,2013-12-18 02:52:00,
2013-12-17 21:22:00,31.0,20.0,-100.00,SSW,203,3.0,-999.0,62,-99.99,,,-99.99,,2013-12-18 03:22:00,
2013-12-17 21:53:00,31.0,20.0,-100.00,SSW,203,3.0,-999.0,63,-99.99,,,-99.99,,2013-12-18 03:53:00,
2013-12-17 22:13:00,31.0,20.0,-100.00,SSW,203,3.0,-999.0,63,-99.99,,,-99.99,,2013-12-18 04:13:00,
2013-12-17 22:23:00,32.0,20.0,-100.00,SSW,203,3.0,-999.0,62,-99.99,,,-99.99,,2013-12-18 04:23:00,
2013-12-17 22:52:00,32.0,20.0,-100.00,SSW,203,3.0,-999.0,61,-99.99,,,-99.99,,2013-12-18 04:52:00,
2013-12-17 23:22:00,33.0,19.0,-100.00,SSW,203,4.0,-999.0,57,-99.99,,,-99.99,,2013-12-18 05:22:00,
2013-12-17 23:52:00,32.0,19.0,-100.00,SSW,203,4.0,-999.0,58,-99.99,,,-99.99,,2013-12-18 05:52:00,